createdAt,value
2023-04-12T00:00:22.995Z,12.03
2023-04-12T00:02:54.304Z,12.04
2023-04-12T00:05:22.836Z,12.06
2023-04-12T00:07:53.095Z,12.04
2023-04-12T00:10:21.268Z,12.00
2023-04-12T00:12:49.395Z,11.99
2023-04-12T00:15:17.102Z,11.99
2023-04-12T00:17:46.417Z,12.01
2023-04-12T00:20:16.654Z,12.01
2023-04-12T00:22:45.011Z,12.03
2023-04-12T00:25:12.778Z,12.03
2023-04-12T00:27:40.715Z,12.02
2023-04-12T00:30:09.384Z,12.00
2023-04-12T00:32:37.180Z,12.03
2023-04-12T00:35:05.217Z,12.06
2023-04-12T00:37:36.243Z,12.08
2023-04-12T00:40:04.113Z,12.10
2023-04-12T00:42:32.313Z,12.07
2023-04-12T00:44:59.959Z,12.07
2023-04-12T00:47:29.540Z,12.06
2023-04-12T00:49:57.277Z,12.03
2023-04-12T00:52:24.977Z,12.04
2023-04-12T00:54:54.903Z,11.97
2023-04-12T00:57:22.614Z,11.95
2023-04-12T00:59:51.315Z,11.90
2023-04-12T01:02:19.258Z,11.90
2023-04-12T01:04:50.606Z,11.89
2023-04-12T01:07:25.664Z,11.88
2023-04-12T01:10:00.034Z,11.82
2023-04-12T01:12:36.195Z,11.76
2023-04-12T01:15:08.288Z,11.66
2023-04-12T01:17:39.390Z,11.56
2023-04-12T01:20:13.513Z,11.53
2023-04-12T01:23:14.746Z,11.48
2023-04-12T01:25:58.764Z,11.45
2023-04-12T01:28:30.435Z,11.40
2023-04-12T01:30:58.241Z,11.41
2023-04-12T01:33:31.350Z,11.34
2023-04-12T01:36:00.418Z,11.28
2023-04-12T01:38:28.445Z,11.30
2023-04-12T01:40:56.262Z,11.29
2023-04-12T01:43:24.020Z,11.31
2023-04-12T01:45:53.245Z,11.27
2023-04-12T01:48:21.091Z,11.30
2023-04-12T01:50:55.918Z,11.30
2023-04-12T01:53:27.877Z,11.30
2023-04-12T01:56:00.990Z,11.31
2023-04-12T01:58:30.546Z,11.33
2023-04-12T02:01:00.973Z,11.33
2023-04-12T02:03:30.726Z,11.33
2023-04-12T02:05:58.980Z,11.28
2023-04-12T02:08:27.120Z,11.25
2023-04-12T02:10:54.948Z,11.23
2023-04-12T02:13:22.756Z,11.19
2023-04-12T02:15:50.432Z,11.23
2023-04-12T02:18:19.454Z,11.18
2023-04-12T02:20:47.638Z,11.19
2023-04-12T02:23:15.465Z,11.17
2023-04-12T02:25:44.116Z,11.18
2023-04-12T02:28:11.833Z,11.17
2023-04-12T02:30:41.644Z,11.13
2023-04-12T02:33:09.918Z,11.10
2023-04-12T02:35:39.114Z,11.09
2023-04-12T02:38:08.336Z,11.08
2023-04-12T02:40:36.515Z,11.02
2023-04-12T02:43:04.282Z,10.90
2023-04-12T02:45:31.899Z,11.05
2023-04-12T02:47:59.843Z,11.07
2023-04-12T02:50:27.518Z,11.10
2023-04-12T02:52:56.640Z,11.09
2023-04-12T02:55:27.254Z,11.05
2023-04-12T02:57:55.037Z,11.02
2023-04-12T03:00:22.931Z,11.04
2023-04-12T03:02:51.550Z,11.05
2023-04-12T03:05:19.622Z,11.06
2023-04-12T03:07:47.344Z,11.08
2023-04-12T03:10:16.633Z,11.08
2023-04-12T03:12:44.318Z,11.05
2023-04-12T03:15:12.500Z,11.02
2023-04-12T03:17:40.151Z,10.99
2023-04-12T03:20:10.556Z,10.98
2023-04-12T03:22:38.603Z,10.94
2023-04-12T03:25:07.281Z,10.91
2023-04-12T03:27:36.398Z,10.91
2023-04-12T03:30:06.318Z,10.86
2023-04-12T03:32:34.033Z,10.81
2023-04-12T03:35:01.813Z,10.82
2023-04-12T03:37:29.582Z,10.82
2023-04-12T03:39:57.399Z,10.80
2023-04-12T03:42:32.991Z,10.81
2023-04-12T03:45:02.479Z,10.83
2023-04-12T03:47:30.623Z,10.81
2023-04-12T03:50:11.587Z,10.79
2023-04-12T03:52:40.079Z,10.81
2023-04-12T03:55:08.440Z,10.82
2023-04-12T03:57:36.359Z,10.79
2023-04-12T04:00:08.433Z,10.76
2023-04-12T04:02:36.737Z,10.78
2023-04-12T04:05:05.028Z,10.80
2023-04-12T04:07:33.115Z,10.79
2023-04-12T04:10:01.139Z,10.80
2023-04-12T04:12:28.852Z,10.77
2023-04-12T04:14:56.548Z,10.77
2023-04-12T04:17:25.615Z,10.80
2023-04-12T04:19:53.416Z,10.83
2023-04-12T04:22:21.610Z,10.82
2023-04-12T04:24:50.163Z,10.76
2023-04-12T04:27:17.814Z,10.73
2023-04-12T04:29:45.755Z,10.72
2023-04-12T04:32:13.693Z,10.74
2023-04-12T04:34:43.498Z,10.73
2023-04-12T04:37:12.455Z,10.73
2023-04-12T04:39:40.207Z,10.74
2023-04-12T04:42:07.967Z,10.73
2023-04-12T04:44:37.292Z,10.74
2023-04-12T04:47:05.187Z,10.75
2023-04-12T04:49:33.757Z,10.72
2023-04-12T04:52:03.265Z,10.70
2023-04-12T04:54:31.038Z,10.74
2023-04-12T04:56:59.497Z,10.76
2023-04-12T04:59:27.442Z,10.72
2023-04-12T05:01:55.232Z,10.67
2023-04-12T05:04:23.003Z,10.63
2023-04-12T05:06:50.637Z,10.64
2023-04-12T05:09:19.759Z,10.60
2023-04-12T05:11:47.559Z,10.61
2023-04-12T05:14:15.322Z,10.61
2023-04-12T05:16:43.027Z,10.60
2023-04-12T05:19:10.754Z,10.56
2023-04-12T05:21:38.939Z,10.57
2023-04-12T05:24:07.158Z,10.60
2023-04-12T05:26:36.237Z,10.60
2023-04-12T05:29:03.995Z,10.53
2023-04-12T05:31:32.276Z,10.53
2023-04-12T05:33:59.953Z,10.56
2023-04-12T05:36:27.959Z,10.56
2023-04-12T05:38:55.825Z,10.48
2023-04-12T05:41:23.694Z,10.42
2023-04-12T05:43:52.881Z,10.40
2023-04-12T05:46:23.815Z,10.43
2023-04-12T05:48:51.644Z,10.45
2023-04-12T05:51:25.169Z,10.45
2023-04-12T05:53:58.499Z,10.42
2023-04-12T05:56:26.496Z,10.39
2023-04-12T05:58:55.944Z,10.35
2023-04-12T06:01:24.869Z,10.36
2023-04-12T06:03:52.846Z,10.37
2023-04-12T06:06:20.573Z,10.41
2023-04-12T06:08:48.267Z,10.40
2023-04-12T06:11:17.910Z,10.37
2023-04-12T06:13:45.628Z,10.37
2023-04-12T06:16:14.654Z,10.34
2023-04-12T06:18:42.370Z,10.33
2023-04-12T06:21:10.284Z,10.32
2023-04-12T06:23:37.948Z,10.27
2023-04-12T06:26:06.188Z,10.28
2023-04-12T06:28:33.846Z,10.32
2023-04-12T06:31:01.582Z,10.32
2023-04-12T06:33:30.997Z,10.32
2023-04-12T06:35:58.725Z,10.32
2023-04-12T06:38:26.509Z,10.26
2023-04-12T06:40:54.244Z,10.32
2023-04-12T06:43:22.789Z,10.32
2023-04-12T06:45:50.875Z,10.33
2023-04-12T06:48:18.754Z,10.35
2023-04-12T06:50:47.815Z,10.33
2023-04-12T06:53:15.642Z,10.29
2023-04-12T06:55:43.456Z,10.30
2023-04-12T06:58:11.193Z,10.31
2023-04-12T07:00:38.910Z,10.29
2023-04-12T07:03:06.874Z,10.30
2023-04-12T07:05:34.516Z,10.29
2023-04-12T07:08:03.641Z,10.33
2023-04-12T07:10:31.446Z,10.36
2023-04-12T07:13:03.509Z,10.37
2023-04-12T07:15:31.176Z,10.36
2023-04-12T07:17:58.882Z,10.35
2023-04-12T07:20:27.080Z,10.37
2023-04-12T07:22:54.792Z,10.35
2023-04-12T07:25:23.861Z,10.30
2023-04-12T07:27:51.898Z,10.31
2023-04-12T07:30:19.826Z,10.26
2023-04-12T07:32:47.687Z,10.25
2023-04-12T07:35:15.582Z,10.28
2023-04-12T07:37:43.309Z,10.31
2023-04-12T07:40:11.325Z,10.36
2023-04-12T07:45:09.158Z,10.39
2023-04-12T07:47:38.317Z,10.41
2023-04-12T07:50:07.436Z,10.41
2023-04-12T07:52:35.255Z,10.44
2023-04-12T07:55:02.928Z,10.46
2023-04-12T07:57:32.990Z,10.52
2023-04-12T08:00:04.517Z,10.55
2023-04-12T08:02:32.320Z,10.62
2023-04-12T08:05:00.075Z,10.69
2023-04-12T08:07:28.047Z,10.70
2023-04-12T08:09:56.147Z,10.71
2023-04-12T08:12:23.865Z,10.74
2023-04-12T08:14:51.553Z,10.76
2023-04-12T08:17:20.687Z,10.75
2023-04-12T08:19:48.328Z,10.76
2023-04-12T08:22:16.016Z,10.78
2023-04-12T08:24:43.660Z,10.80
2023-04-12T08:27:13.794Z,10.79
2023-04-12T08:29:41.604Z,10.82
2023-04-12T08:32:10.174Z,10.86
2023-04-12T08:34:39.280Z,10.83
2023-04-12T08:37:06.933Z,10.82
2023-04-12T08:39:34.616Z,10.82
2023-04-12T08:42:02.809Z,10.78
2023-04-12T08:44:36.521Z,10.86
2023-04-12T08:47:04.557Z,10.90
2023-04-12T08:49:32.932Z,10.93
2023-04-12T08:52:05.681Z,10.88
2023-04-12T08:54:33.581Z,10.91
2023-04-12T08:57:02.772Z,10.89
2023-04-12T08:59:31.535Z,10.94
2023-04-12T09:02:00.427Z,10.95
2023-04-12T09:04:28.211Z,10.97
2023-04-12T09:06:55.968Z,10.94
2023-04-12T09:09:42.989Z,10.95
2023-04-12T09:12:11.331Z,10.95
2023-04-12T09:14:39.731Z,10.93
2023-04-12T09:17:22.792Z,10.91
2023-04-12T09:19:50.579Z,10.90
2023-04-12T09:22:18.368Z,10.88
2023-04-12T09:24:53.225Z,10.87
2023-04-12T09:27:22.018Z,10.89
2023-04-12T09:29:52.857Z,10.88
2023-04-12T09:32:27.592Z,10.86
2023-04-12T09:35:01.272Z,10.82
2023-04-12T09:37:29.233Z,10.86
2023-04-12T09:40:02.399Z,10.90
2023-04-12T09:42:34.005Z,10.99
2023-04-12T09:45:17.340Z,11.02
2023-04-12T09:47:45.813Z,11.08
2023-04-12T09:50:22.082Z,11.14
2023-04-12T09:52:50.268Z,11.21
2023-04-12T09:55:19.536Z,11.23
2023-04-12T09:57:47.370Z,11.26
2023-04-12T10:00:17.689Z,11.30
2023-04-12T10:02:47.823Z,11.37
2023-04-12T10:05:18.841Z,11.45
2023-04-12T10:07:47.677Z,11.54
2023-04-12T10:10:17.290Z,11.64
2023-04-12T10:12:48.491Z,11.73
2023-04-12T10:15:17.642Z,11.79
2023-04-12T10:17:47.165Z,11.80
2023-04-12T10:20:16.837Z,11.74
2023-04-12T10:22:45.712Z,11.77
2023-04-12T10:25:15.189Z,11.78
2023-04-12T10:27:44.627Z,11.78
2023-04-12T10:30:25.072Z,11.80
2023-04-12T10:33:14.716Z,11.87
2023-04-12T10:35:56.967Z,11.93
2023-04-12T10:38:27.295Z,11.92
2023-04-12T10:41:17.172Z,11.99
2023-04-12T10:43:46.122Z,12.06
2023-04-12T10:46:50.019Z,12.17
2023-04-12T10:49:18.264Z,12.19
2023-04-12T10:52:14.952Z,12.29
2023-04-12T10:54:42.962Z,12.32
2023-04-12T10:57:49.640Z,12.38
2023-04-12T11:00:18.179Z,12.38
2023-04-12T11:03:07.602Z,12.40
2023-04-12T11:06:04.575Z,12.38
2023-04-12T11:08:40.935Z,12.38
2023-04-12T11:11:22.653Z,12.43
2023-04-12T11:13:55.940Z,12.44
2023-04-12T11:16:23.806Z,12.49
2023-04-12T11:18:53.100Z,12.56
2023-04-12T11:21:20.790Z,12.61
2023-04-12T11:23:49.097Z,12.72
2023-04-12T11:26:21.016Z,12.88
2023-04-12T11:28:52.983Z,12.97
2023-04-12T11:31:21.542Z,13.00
2023-04-12T11:33:49.321Z,13.08
2023-04-12T11:36:18.533Z,13.05
2023-04-12T11:38:48.232Z,13.01
2023-04-12T11:41:16.868Z,12.95
2023-04-12T11:43:44.623Z,12.95
2023-04-12T11:46:12.424Z,12.99
2023-04-12T11:48:40.201Z,13.11
2023-04-12T11:51:22.392Z,13.24
2023-04-12T11:53:54.546Z,13.30
2023-04-12T11:56:22.361Z,13.52
2023-04-12T11:58:50.039Z,13.66
2023-04-12T12:01:18.629Z,13.73
2023-04-12T12:03:46.583Z,13.82
2023-04-12T12:06:16.807Z,13.83
2023-04-12T12:08:46.357Z,13.71
2023-04-12T12:11:14.072Z,13.76
2023-04-12T12:13:45.720Z,13.66
2023-04-12T12:16:13.632Z,13.65
2023-04-12T12:18:41.839Z,13.60
2023-04-12T12:21:10.807Z,13.65
2023-04-12T12:23:39.045Z,13.80
2023-04-12T12:26:18.897Z,13.96
2023-04-12T12:28:50.880Z,14.01
2023-04-12T12:31:20.462Z,13.98
2023-04-12T12:33:48.363Z,13.89
2023-04-12T12:36:19.736Z,13.72
2023-04-12T12:38:49.060Z,13.58
2023-04-12T12:41:20.312Z,13.32
2023-04-12T12:43:48.396Z,13.02
2023-04-12T12:46:17.554Z,12.74
2023-04-12T12:48:45.946Z,12.48
2023-04-12T12:51:14.271Z,12.33
2023-04-12T12:53:42.120Z,12.20
2023-04-12T12:56:11.109Z,12.14
2023-04-12T12:58:41.165Z,12.08
2023-04-12T13:01:09.231Z,12.08
2023-04-12T13:03:37.145Z,12.05
2023-04-12T13:06:05.442Z,11.99
2023-04-12T13:08:35.258Z,11.96
2023-04-12T13:11:03.044Z,11.95
2023-04-12T13:13:30.781Z,12.01
2023-04-12T13:15:59.965Z,12.06
2023-04-12T13:18:27.911Z,12.18
2023-04-12T13:20:55.594Z,12.28
2023-04-12T13:23:23.453Z,12.28
2023-04-12T13:25:51.120Z,12.28
2023-04-12T13:28:19.464Z,12.30
2023-04-12T13:30:48.665Z,12.25
2023-04-12T13:33:21.024Z,12.25
2023-04-12T13:35:49.844Z,12.16
2023-04-12T13:38:17.580Z,12.20
2023-04-12T13:40:45.269Z,12.14
2023-04-12T13:43:12.982Z,12.19
2023-04-12T13:45:40.749Z,12.16
2023-04-12T13:48:08.531Z,12.15
2023-04-12T13:50:37.705Z,12.11
2023-04-12T13:53:05.432Z,12.04
2023-04-12T13:55:33.073Z,12.04
2023-04-12T13:58:00.775Z,12.00
2023-04-12T14:00:28.435Z,11.99
2023-04-12T14:02:56.197Z,12.01
2023-04-12T14:05:23.936Z,12.09
2023-04-12T14:07:53.270Z,12.04
2023-04-12T14:10:21.022Z,11.99
2023-04-12T14:12:48.748Z,11.99
2023-04-12T14:15:16.540Z,12.04
2023-04-12T14:17:44.505Z,12.10
2023-04-12T14:20:13.419Z,12.13
2023-04-12T14:22:41.171Z,12.21
2023-04-12T14:25:12.962Z,12.23
2023-04-12T14:27:40.632Z,12.26
2023-04-12T14:30:09.724Z,12.27
2023-04-12T14:32:37.418Z,12.25
2023-04-12T14:35:05.556Z,12.26
2023-04-12T14:37:34.020Z,12.21
2023-04-12T14:40:01.756Z,12.22
2023-04-12T14:42:31.005Z,12.19
2023-04-12T14:44:58.732Z,12.19
2023-04-12T14:47:26.651Z,12.20
2023-04-12T14:49:54.347Z,12.20
2023-04-12T14:52:22.198Z,12.21
2023-04-12T14:54:49.995Z,12.18
2023-04-12T14:57:17.759Z,12.19
2023-04-12T14:59:46.942Z,12.24
2023-04-12T15:02:14.774Z,12.27
2023-04-12T15:04:44.996Z,12.25
2023-04-12T15:07:12.845Z,12.19
2023-04-12T15:09:40.565Z,12.15
2023-04-12T15:12:08.424Z,12.11
2023-04-12T15:14:36.064Z,12.12
2023-04-12T15:17:05.183Z,12.15
2023-04-12T15:19:32.934Z,12.17
2023-04-12T15:22:00.774Z,12.17
2023-04-12T15:25:41.662Z,12.08
2023-04-12T15:28:09.402Z,12.08
2023-04-12T15:30:37.110Z,12.11
2023-04-12T15:33:04.895Z,12.08
2023-04-12T15:35:32.646Z,12.09
2023-04-12T15:38:00.272Z,12.04
2023-04-12T15:40:28.039Z,12.00
2023-04-12T15:42:57.188Z,11.89
2023-04-12T15:45:25.204Z,11.87
2023-04-12T15:47:55.117Z,11.80
2023-04-12T15:50:22.938Z,11.72
2023-04-12T15:52:51.005Z,11.59
2023-04-12T15:55:21.732Z,11.50
2023-04-12T15:57:49.594Z,11.40
2023-04-12T16:00:24.851Z,11.32
2023-04-12T16:02:56.316Z,11.29
2023-04-12T16:05:26.600Z,11.21
2023-04-12T16:07:54.590Z,11.21
2023-04-12T16:10:22.812Z,11.14
2023-04-12T16:12:51.833Z,11.17
2023-04-12T16:15:21.699Z,11.19
2023-04-12T16:17:53.301Z,11.19
2023-04-12T16:20:22.060Z,11.17
2023-04-12T16:22:50.456Z,11.19
2023-04-12T16:25:18.881Z,11.13
2023-04-12T16:27:46.504Z,11.12
2023-04-12T16:30:15.644Z,11.14
2023-04-12T16:32:46.748Z,11.18
2023-04-12T16:35:15.348Z,11.14
2023-04-12T16:37:43.372Z,11.12
2023-04-12T16:40:13.064Z,11.14
2023-04-12T16:42:41.612Z,11.17
2023-04-12T16:45:10.278Z,11.09
2023-04-12T16:47:38.138Z,10.92
2023-04-12T16:50:09.179Z,10.71
2023-04-12T16:52:38.084Z,10.69
2023-04-12T16:55:06.824Z,10.60
2023-04-12T16:57:34.539Z,10.60
2023-04-12T17:00:02.483Z,10.51
2023-04-12T17:02:30.345Z,10.48
2023-04-12T17:04:58.159Z,10.49
2023-04-12T17:07:27.231Z,10.44
2023-04-12T17:09:56.056Z,10.47
2023-04-12T17:12:23.776Z,10.48
2023-04-12T17:14:52.084Z,10.53
2023-04-12T17:17:19.721Z,10.51
2023-04-12T17:19:47.372Z,10.46
2023-04-12T17:22:14.988Z,10.49
2023-04-12T17:24:44.626Z,10.47
2023-04-12T17:27:12.398Z,10.52
2023-04-12T17:29:40.084Z,10.55
2023-04-12T17:32:08.070Z,10.63
2023-04-12T17:34:35.673Z,10.70
2023-04-12T17:37:04.297Z,10.70
2023-04-12T17:39:32.292Z,10.69
2023-04-12T17:42:01.372Z,10.64
2023-04-12T17:44:28.987Z,10.56
2023-04-12T17:46:57.080Z,10.54
2023-04-12T17:49:25.305Z,10.57
2023-04-12T17:51:53.017Z,10.57
2023-04-12T17:54:21.419Z,10.49
2023-04-12T17:56:49.748Z,10.46
2023-04-12T17:59:18.787Z,10.38
2023-04-12T18:01:47.107Z,10.37
2023-04-12T18:04:15.052Z,10.35
2023-04-12T18:06:42.855Z,10.37
2023-04-12T18:09:11.330Z,10.43
2023-04-12T18:11:39.851Z,10.44
2023-04-12T18:14:07.602Z,10.45
2023-04-12T18:16:37.476Z,10.44
2023-04-12T18:19:06.580Z,10.43
2023-04-12T18:21:34.916Z,10.43
2023-04-12T18:24:03.034Z,10.42
2023-04-12T18:26:31.680Z,10.34
2023-04-12T18:29:00.314Z,10.33
2023-04-12T18:31:28.363Z,10.30
2023-04-12T18:33:57.745Z,10.30
2023-04-12T18:36:27.097Z,10.24
2023-04-12T18:38:54.834Z,10.17
2023-04-12T18:41:22.519Z,10.12
2023-04-12T18:43:50.159Z,10.09
2023-04-12T18:46:18.508Z,10.09
2023-04-12T18:48:47.892Z,10.06
2023-04-12T18:51:16.995Z,9.98
2023-04-12T18:53:44.884Z,9.91
2023-04-12T18:56:13.746Z,9.91
2023-04-12T18:58:54.494Z,9.92
2023-04-12T19:01:23.511Z,9.91
2023-04-12T19:03:51.424Z,9.89
2023-04-12T19:06:20.881Z,9.86
2023-04-12T19:08:49.745Z,9.84
2023-04-12T19:11:17.403Z,9.83
2023-04-12T19:13:45.153Z,9.81
2023-04-12T19:16:13.842Z,9.81
2023-04-12T19:18:41.544Z,9.81
2023-04-12T19:21:09.197Z,9.81
2023-04-12T19:23:38.308Z,9.80
2023-04-12T19:26:06.430Z,9.78
2023-04-12T19:28:34.184Z,9.77
2023-04-12T19:31:05.160Z,9.72
2023-04-12T19:33:32.922Z,9.72
2023-04-12T19:36:00.632Z,9.72
2023-04-12T19:38:29.035Z,9.72
2023-04-12T19:40:58.267Z,9.64
2023-04-12T19:43:26.371Z,9.69
2023-04-12T19:45:54.393Z,9.65
2023-04-12T19:48:22.120Z,9.62
2023-04-12T19:50:49.874Z,9.62
2023-04-12T19:53:18.346Z,9.61
2023-04-12T19:55:46.052Z,9.55
2023-04-12T19:58:15.491Z,9.52
2023-04-12T20:00:43.591Z,9.49
2023-04-12T20:03:11.339Z,9.47
2023-04-12T20:05:42.797Z,9.43
2023-04-12T20:08:11.485Z,9.42
2023-04-12T20:10:39.722Z,9.38
2023-04-12T20:13:10.520Z,9.37
2023-04-12T20:15:39.537Z,9.37
2023-04-12T20:18:08.267Z,9.36
2023-04-12T20:20:36.048Z,9.35
2023-04-12T20:23:04.475Z,9.37
2023-04-12T20:25:35.560Z,9.32
2023-04-12T20:28:04.436Z,9.33
2023-04-12T20:30:32.231Z,9.31
2023-04-12T20:33:01.363Z,9.31
2023-04-12T20:35:29.384Z,9.30
2023-04-12T20:37:57.627Z,9.31
2023-04-12T20:40:29.514Z,9.28
2023-04-12T20:42:59.603Z,9.23
2023-04-12T20:45:27.464Z,9.17
2023-04-12T20:47:55.566Z,9.16
2023-04-12T20:50:30.690Z,9.09
2023-04-12T20:53:00.639Z,9.10
2023-04-12T20:55:33.148Z,9.10
2023-04-12T20:58:03.946Z,9.06
2023-04-12T21:00:34.663Z,9.04
2023-04-12T21:03:07.411Z,8.98
2023-04-12T21:05:41.365Z,8.97
2023-04-12T21:08:11.950Z,8.95
2023-04-12T21:10:41.624Z,8.93
2023-04-12T21:13:12.070Z,8.93
2023-04-12T21:15:43.487Z,8.90
2023-04-12T21:18:13.331Z,8.92
2023-04-12T21:20:46.116Z,8.88
2023-04-12T21:23:16.493Z,8.82
2023-04-12T21:25:46.631Z,8.78
2023-04-12T21:28:16.241Z,8.75
2023-04-12T21:30:46.376Z,8.71
2023-04-12T21:33:24.819Z,8.75
2023-04-12T21:35:57.084Z,8.76
2023-04-12T21:38:25.744Z,8.75
2023-04-12T21:40:57.458Z,8.73
2023-04-12T21:43:27.090Z,8.72
2023-04-12T21:45:55.376Z,8.73
2023-04-12T21:48:23.256Z,8.76
2023-04-12T21:50:51.157Z,8.76
2023-04-12T21:53:20.467Z,8.76
2023-04-12T21:55:50.838Z,8.73
2023-04-12T21:58:18.869Z,8.69
2023-04-12T22:00:48.963Z,8.68
2023-04-12T22:03:18.911Z,8.70
2023-04-12T22:06:00.844Z,8.70
2023-04-12T22:08:34.349Z,8.72
2023-04-12T22:11:02.418Z,8.73
2023-04-12T22:13:30.998Z,8.72
2023-04-12T22:16:00.818Z,8.71
2023-04-12T22:18:28.803Z,8.72
2023-04-12T22:20:57.915Z,8.68
2023-04-12T22:23:28.015Z,8.74
2023-04-12T22:25:59.006Z,8.74
2023-04-12T22:28:26.832Z,8.75
2023-04-12T22:30:57.113Z,8.76
2023-04-12T22:33:25.131Z,8.74
2023-04-12T22:35:53.845Z,8.71
2023-04-12T22:38:21.737Z,8.68
2023-04-12T22:40:49.616Z,8.66
2023-04-12T22:43:21.362Z,8.67
2023-04-12T22:45:54.113Z,8.64
2023-04-12T22:48:25.207Z,8.59
2023-04-12T22:50:54.811Z,8.60
2023-04-12T22:53:37.735Z,8.52
2023-04-12T22:56:17.543Z,8.48
2023-04-12T22:59:04.998Z,8.41
2023-04-12T23:01:41.441Z,8.49
2023-04-12T23:04:17.695Z,8.43
2023-04-12T23:06:46.282Z,8.43
2023-04-12T23:09:15.838Z,8.40
2023-04-12T23:11:43.935Z,8.38
2023-04-12T23:14:22.043Z,8.51
2023-04-12T23:16:55.639Z,8.45
2023-04-12T23:19:37.701Z,8.45
2023-04-12T23:22:22.471Z,8.52
2023-04-12T23:24:51.356Z,8.58
2023-04-12T23:27:20.372Z,8.50
2023-04-12T23:29:50.217Z,8.62
2023-04-12T23:32:18.007Z,8.66
2023-04-12T23:34:46.424Z,8.65
2023-04-12T23:37:16.664Z,8.68
2023-04-12T23:39:46.227Z,8.71
2023-04-12T23:42:13.982Z,8.70
2023-04-12T23:44:43.732Z,8.71
2023-04-12T23:47:13.298Z,8.72
2023-04-12T23:49:41.280Z,8.74
2023-04-12T23:52:09.233Z,8.72
2023-04-12T23:54:38.985Z,8.75
2023-04-12T23:57:08.657Z,8.75
2023-04-12T23:59:38.570Z,8.77
